Aeroporto :







RITROVATECI SU...

 
LOGIN :

Iscrizione | Disclaimer

   EN    FR    IT 

 









Sommario :    VFR   VFR Marginale   IFR   IFR Intensivo   IFR Molto Intensivo
Visibilità : 
Base nubi : 
>= 8 km
>= 3000ft
5 / 8 km
1000 / 3000 ft
1500m / 5 km
500 / 1000 ft
800 / 1500m
200 / 500 ft
< 800m
< 200 ft
Simboli :   Temporali  Nebbia  Neve Forte  Precipitazioni Forti  Vento > 20 kt






- Altitudine del aeroporto : 172 ft
- Codice IATA : YYY


CYYY - Mont Joli

ULTIMO METAR :
  • 140800Z 20007KT 15SM FEW025 FEW220 M10/M14 A3034 RMK SC1CI1 SLP280

METARs OBSOLETI :
  • 140700Z 21004KT 15SM FEW030 M09/M14 A3033 RMK SC1 SLP277
  • 140600Z 32010KT 15SM FEW030 M07/M13 A3030 RMK SC1 SLP265

TAF TAF CYYY
Valido dal 14 a 08 ore il 14 a 20 ore UTC


140738Z 1408/1420 22006KT P6SM FEW020 SCT160
BECMG 1408/1410 22008KT
FM141400 18012KT P6SM FEW020 BKN120 RMK NXT FCST BY 141400Z



MetMap, La meteo Aeronautica in un colpo d'occhio ! - Copyright ORBIFLY Dicembre 2007 - Disclaimer

ORBIFLY MET'MAP TEAM :

Programmazione e sviluppo : Alexandra Zaïnal
Concezione e sviluppo : Baudouin d'Aumeries
Co-Programmazione e sviluppo : Marc-Olivier Méhu
Supporto tecnico e logistico : Manuel Goepfert
Aiuto per la traduzione : Arnaldo La Scala

Contatto : metmap@orbifly.com




FONTI E CREDITI :

   NOAA